Time;durP1;ratioP1;P1;durP2;ratioP2;P2;SDS_P1;SDS_P2;PMS_P1;PMS_P2;Temp;Humidity;BMP_temperature;BMP_pressure;BME280_temperature;BME280_humidity;BME280_pressure;Samples;Min_cycle;Max_cycle;Signal;HPM_P1;HPM_P2
2022/07/25 00:00:11;;;;;;;0.10;0.10;;;21.30;99.90;;;21.33;100.00;100075.72;5003952;28;20223;-72
2022/07/25 00:02:40;;;;;;;0.28;0.28;;;;;;;21.44;100.00;100080.66;5005534;28;20212;-72
2022/07/25 00:05:08;;;;;;;0.00;0.00;;;;;;;21.25;100.00;100099.34;4998578;28;20258;-72
2022/07/25 00:07:37;;;;;;;0.20;0.20;;;;;;;21.09;100.00;100082.06;5004004;28;20218;-71
2022/07/25 00:10:06;;;;;;;0.10;0.10;;;21.40;99.90;;;20.98;100.00;100074.41;4999538;28;20219;-71
2022/07/25 00:12:34;;;;;;;0.00;0.00;;;;;;;21.09;100.00;100082.06;5002471;28;20212;-72
2022/07/25 00:15:03;;;;;;;0.10;0.10;;;;;;;21.03;100.00;100079.59;4996198;28;20221;-73
2022/07/25 00:17:31;;;;;;;0.10;0.10;;;;;;;20.97;100.00;100069.97;5001461;28;20220;-72
2022/07/25 00:19:59;;;;;;;0.20;0.20;;;;;;;20.92;100.00;100058.53;4998412;28;20204;-71
2022/07/25 00:22:27;;;;;;;0.50;0.50;;;;;;;20.92;100.00;100088.09;4996681;28;20247;-71
2022/07/25 00:24:55;;;;;;;0.15;0.15;;;;;;;21.00;100.00;100091.34;4999915;28;20242;-71
2022/07/25 00:27:24;;;;;;;0.00;0.00;;;;;;;20.95;100.00;100092.47;5001722;28;20200;-72
2022/07/25 00:29:52;;;;;;;0.05;0.05;;;;;;;20.84;100.00;100086.63;5002205;28;20207;-71
2022/07/25 00:32:20;;;;;;;0.10;0.10;;;;;;;20.88;100.00;100090.97;4998066;28;20304;-71
2022/07/25 00:34:48;;;;;;;0.00;0.00;;;;;;;20.77;100.00;100076.09;4999322;28;20678;-72
2022/07/25 00:37:16;;;;;;;0.10;0.10;;;;;;;20.65;100.00;100079.25;5002361;28;20204;-72
2022/07/25 00:39:45;;;;;;;0.55;0.55;;;;;;;20.68;100.00;100079.13;4995189;28;20212;-72
2022/07/25 00:42:13;;;;;;;0.10;0.10;;;;;;;20.68;100.00;100092.56;5004375;28;20234;-72
2022/07/25 00:44:41;;;;;;;0.50;0.50;;;;;;;20.53;100.00;100084.19;4997012;28;20243;-72
2022/07/25 00:47:09;;;;;;;0.10;0.10;;;;;;;20.56;100.00;100089.47;4996356;28;20220;-71
2022/07/25 00:49:37;;;;;;;0.38;0.38;;;;;;;20.39;100.00;100074.84;4997668;28;20216;-72
2022/07/25 00:52:06;;;;;;;0.10;0.10;;;;;;;20.55;100.00;100076.97;4999356;28;20200;-72
2022/07/25 00:54:34;;;;;;;0.10;0.10;;;;;;;20.62;100.00;100092.78;5015079;28;20247;-72
2022/07/25 00:57:02;;;;;;;0.20;0.20;;;;;;;20.68;100.00;100111.38;4997263;28;20201;-72
2022/07/25 00:59:30;;;;;;;0.10;0.10;;;;;;;20.54;100.00;100097.56;4998142;28;20220;-72
2022/07/25 01:01:58;;;;;;;0.10;0.10;;;;;;;20.51;100.00;100091.44;4996359;28;20219;-72
2022/07/25 01:04:30;;;;;;;0.08;0.08;;;;;;;20.42;100.00;100082.78;4998498;28;20225;-71
2022/07/25 01:06:59;;;;;;;0.10;0.10;;;20.30;99.90;;;20.39;100.00;100085.59;4991638;28;20242;-71
2022/07/25 01:09:28;;;;;;;0.10;0.10;;;;;;;20.38;100.00;100091.00;4996820;28;20234;-71
2022/07/25 01:11:56;;;;;;;0.43;0.43;;;;;;;20.30;100.00;100102.00;5014887;28;20204;-72
2022/07/25 01:14:24;;;;;;;0.10;0.10;;;;;;;20.17;100.00;100095.31;5002141;28;20232;-72
2022/07/25 01:16:52;;;;;;;0.10;0.10;;;;;;;20.03;100.00;100093.13;5004173;28;20207;-72
2022/07/25 01:19:20;;;;;;;0.00;0.00;;;;;;;20.04;100.00;100105.63;5002628;28;20219;-71
2022/07/25 01:21:49;;;;;;;0.38;0.30;;;;;;;20.33;100.00;100120.69;5002141;28;20220;-72
2022/07/25 01:24:17;;;;;;;0.10;0.10;;;;;;;20.50;100.00;100119.25;5003190;28;20228;-72
2022/07/25 01:26:45;;;;;;;0.10;0.10;;;;;;;20.48;100.00;100100.50;5003021;28;20207;-71
2022/07/25 01:29:13;;;;;;;0.10;0.10;;;;;;;20.35;100.00;100088.41;5002980;28;20208;-72
2022/07/25 01:31:41;;;;;;;0.10;0.10;;;;;;;20.28;100.00;100094.94;5002020;28;20215;-72
2022/07/25 01:34:09;;;;;;;0.10;0.10;;;;;;;20.33;100.00;100106.38;4999073;28;20239;-72
2022/07/25 01:36:37;;;;;;;0.10;0.10;;;;;;;20.42;100.00;100112.34;5004851;28;20295;-72
2022/07/25 01:39:06;;;;;;;0.10;0.10;;;;;;;20.47;100.00;100113.97;5002451;28;20216;-71
2022/07/25 01:41:34;;;;;;;0.00;0.00;;;;;;;20.44;100.00;100109.59;5002734;28;20213;-72
2022/07/25 01:44:03;;;;;;;0.10;0.10;;;;;;;20.40;100.00;100113.31;5005437;28;20254;-71
2022/07/25 01:46:31;;;;;;;0.10;0.10;;;;;;;20.15;100.00;100105.25;5002044;28;20311;-71
2022/07/25 01:49:00;;;;;;;0.10;0.10;;;;;;;19.94;100.00;100106.88;5067984;23;20585;-78
2022/07/25 01:51:28;;;;;;;0.30;0.30;;;;;;;19.91;100.00;100114.16;4992695;28;20673;-78
2022/07/25 01:53:56;;;;;;;0.10;0.10;;;;;;;19.97;100.00;100122.88;4992377;28;20229;-77
2022/07/25 01:56:24;;;;;;;0.10;0.10;;;;;;;19.88;100.00;100122.31;4988261;28;20204;-78
2022/07/25 01:58:54;;;;;;;0.17;0.17;;;;;;;19.83;100.00;100141.25;4990434;28;20212;-79
2022/07/25 02:01:23;;;;;;;0.10;0.10;;;;;;;19.85;100.00;100149.25;4986569;28;20204;-78
2022/07/25 02:03:51;;;;;;;0.10;0.10;;;;;;;19.83;100.00;100138.56;4991052;28;20221;-77
2022/07/25 02:06:19;;;;;;;0.10;0.10;;;;;;;19.70;100.00;100131.84;4984986;28;20233;-78
2022/07/25 02:08:47;;;;;;;0.10;0.10;;;;;;;19.69;100.00;100130.97;4987015;28;20204;-77
2022/07/25 02:11:16;;;;;;;0.20;0.20;;;;;;;19.77;100.00;100134.28;4986087;28;20209;-78
2022/07/25 02:13:45;;;;;;;0.00;0.00;;;;;;;19.79;100.00;100124.38;4988321;28;20221;-77
2022/07/25 02:16:13;;;;;;;0.10;0.10;;;;;;;19.85;100.00;100128.66;4986887;28;20208;-78
2022/07/25 02:18:41;;;;;;;0.10;0.10;;;;;;;19.91;100.00;100131.13;4985316;28;20582;-77
2022/07/25 02:21:09;;;;;;;0.10;0.10;;;;;;;19.90;100.00;100129.38;4987492;28;20207;-76
2022/07/25 02:23:43;;;;;;;0.00;0.00;;;19.60;99.90;;;19.81;100.00;100119.81;4983711;28;20239;-76
2022/07/25 02:26:11;;;;;;;0.10;0.10;;;;;;;19.85;100.00;100117.03;4984017;28;20232;-76
2022/07/25 02:28:40;;;;;;;0.10;0.10;;;;;;;19.84;100.00;100120.66;4998870;28;20216;-76
2022/07/25 02:31:08;;;;;;;0.40;0.40;;;;;;;19.84;100.00;100124.22;4986570;28;20205;-78
2022/07/25 02:33:37;;;;;;;0.10;0.10;;;;;;;19.73;100.00;100129.94;4993154;28;20224;-78
2022/07/25 02:36:06;;;;;;;0.28;0.28;;;;;;;19.77;100.00;100136.09;4987122;28;20205;-78
2022/07/25 02:38:34;;;;;;;0.10;0.10;;;;;;;19.75;100.00;100129.88;4988711;28;20216;-78
2022/07/25 02:41:02;;;;;;;0.10;0.10;;;;;;;19.74;100.00;100112.91;4990480;28;20212;-78
2022/07/25 02:43:31;;;;;;;0.10;0.10;;;;;;;19.75;100.00;100121.84;4986878;28;20233;-78
2022/07/25 02:45:59;;;;;;;0.10;0.10;;;;;;;19.64;100.00;100134.72;4988154;28;20224;-78
2022/07/25 02:48:27;;;;;;;0.10;0.10;;;;;;;19.59;100.00;100129.53;4985508;28;20227;-78
2022/07/25 02:50:55;;;;;;;0.10;0.10;;;;;;;19.58;100.00;100138.50;4986828;28;20212;-78
2022/07/25 02:53:23;;;;;;;0.10;0.10;;;;;;;19.77;100.00;100141.44;5002544;28;20247;-78
2022/07/25 02:56:11;;;;;;;0.25;0.25;;;;;;;19.91;100.00;100133.81;4985437;28;20221;-78
2022/07/25 02:58:41;;;;;;;0.10;0.10;;;;;;;19.88;100.00;100154.50;4989873;28;20216;-78
2022/07/25 03:01:10;;;;;;;0.10;0.10;;;;;;;19.54;100.00;100166.34;4986763;28;20205;-78
2022/07/25 03:03:38;;;;;;;0.10;0.10;;;;;;;19.52;100.00;100160.16;4985822;28;20232;-78
2022/07/25 03:06:07;;;;;;;0.10;0.10;;;;;;;19.54;100.00;100170.84;4986941;28;20273;-78
2022/07/25 03:08:35;;;;;;;0.10;0.10;;;;;;;19.45;100.00;100162.09;4987611;28;20216;-78
2022/07/25 03:11:03;;;;;;;0.10;0.10;;;;;;;19.44;100.00;100172.84;4985227;28;20219;-78
2022/07/25 03:13:32;;;;;;;0.10;0.10;;;;;;;19.29;100.00;100176.91;4988099;28;20720;-78
2022/07/25 03:16:00;;;;;;;0.10;0.10;;;;;;;19.26;100.00;100174.31;4986523;28;20217;-78
2022/07/25 03:18:28;;;;;;;0.10;0.10;;;;;;;19.31;100.00;100176.84;5001440;28;20224;-78
2022/07/25 03:20:57;;;;;;;0.28;0.28;;;;;;;19.39;100.00;100181.03;4987661;28;20212;-78
2022/07/25 03:23:27;;;;;;;0.03;0.03;;;;;;;19.19;100.00;100175.41;4989000;28;20243;-78
2022/07/25 03:25:55;;;;;;;0.10;0.10;;;;;;;19.01;100.00;100163.44;4999082;28;20225;-78
2022/07/25 03:28:24;;;;;;;0.10;0.10;;;;;;;19.12;100.00;100168.50;4988235;28;20212;-78
2022/07/25 03:30:52;;;;;;;0.10;0.10;;;18.90;99.90;;;19.28;100.00;100167.09;4987945;28;20365;-78
2022/07/25 03:33:21;;;;;;;0.20;0.20;;;;;;;19.32;100.00;100173.25;4985980;28;20235;-78
2022/07/25 03:35:49;;;;;;;0.20;0.20;;;;;;;19.30;100.00;100173.28;4985583;28;20223;-78
2022/07/25 03:38:17;;;;;;;0.10;0.10;;;;;;;19.14;100.00;100174.69;4989293;28;20216;-78
2022/07/25 03:40:46;;;;;;;0.00;0.00;;;;;;;19.24;100.00;100175.28;4989867;28;20212;-78
2022/07/25 03:43:14;;;;;;;0.17;0.17;;;;;;;19.31;100.00;100187.56;4985835;28;20284;-78
2022/07/25 03:45:42;;;;;;;0.10;0.10;;;;;;;19.28;100.00;100190.34;4987589;28;20232;-79
2022/07/25 03:48:10;;;;;;;0.10;0.10;;;;;;;19.16;100.00;100192.47;4983889;28;20201;-80
2022/07/25 03:50:39;;;;;;;0.10;0.10;;;;;;;19.13;100.00;100197.06;4988485;28;20206;-80
2022/07/25 03:53:07;;;;;;;0.10;0.10;;;;;;;19.03;100.00;100190.22;4986379;28;20228;-79
2022/07/25 03:55:38;;;;;;;0.10;0.10;;;;;;;19.06;100.00;100171.34;4982349;28;20204;-80
2022/07/25 03:58:06;;;;;;;0.10;0.10;;;;;;;19.07;100.00;100175.78;4994200;28;20231;-81
2022/07/25 04:00:34;;;;;;;0.10;0.10;;;;;;;18.87;100.00;100179.06;4990731;28;20212;-80
2022/07/25 04:03:03;;;;;;;0.10;0.10;;;;;;;18.80;100.00;100180.16;4990954;28;20224;-81
2022/07/25 04:05:31;;;;;;;0.30;0.30;;;;;;;18.86;100.00;100193.38;4987143;28;20213;-81
2022/07/25 04:07:59;;;;;;;0.15;0.15;;;;;;;18.83;100.00;100188.09;4990570;28;20200;-81
2022/07/25 04:10:27;;;;;;;0.10;0.10;;;;;;;18.83;100.00;100194.34;4987855;28;20208;-80
2022/07/25 04:12:56;;;;;;;0.20;0.20;;;;;;;18.88;100.00;100199.56;4988817;28;20216;-81
2022/07/25 04:15:24;;;;;;;0.17;0.17;;;;;;;18.89;100.00;100193.28;4988584;28;20205;-80
2022/07/25 04:17:52;;;;;;;0.10;0.10;;;;;;;18.91;100.00;100199.47;4987704;28;20211;-81
2022/07/25 04:20:22;;;;;;;0.10;0.10;;;;;;;18.89;100.00;100206.69;4989282;28;20200;-79
2022/07/25 04:22:52;;;;;;;0.10;0.10;;;;;;;18.93;100.00;100204.78;4988125;28;20212;-78
2022/07/25 04:25:20;;;;;;;0.10;0.10;;;;;;;18.71;100.00;100210.75;4988178;28;20209;-78
2022/07/25 04:27:48;;;;;;;0.20;0.20;;;;;;;18.72;100.00;100208.97;4984050;28;20232;-78
2022/07/25 04:30:16;;;;;;;0.10;0.10;;;;;;;18.75;100.00;100211.56;4987474;28;20205;-78
2022/07/25 04:32:52;;;;;;;0.10;0.10;;;;;;;18.74;100.00;100204.44;4989528;28;20554;-78
2022/07/25 04:35:20;;;;;;;0.40;0.35;;;;;;;18.76;100.00;100207.94;4988883;28;20212;-78
2022/07/25 04:37:49;;;;;;;0.10;0.10;;;;;;;18.71;100.00;100209.88;4987546;28;20676;-77
2022/07/25 04:40:17;;;;;;;0.10;0.10;;;;;;;18.78;100.00;100211.47;4986528;28;20205;-78
2022/07/25 04:42:45;;;;;;;0.20;0.20;;;;;;;18.76;100.00;100210.63;4988284;28;20212;-78
2022/07/25 04:45:14;;;;;;;0.10;0.10;;;;;;;18.84;100.00;100219.34;4990489;28;20201;-78
2022/07/25 04:47:45;;;;;;;0.10;0.10;;;;;;;18.89;100.00;100222.75;4986022;28;20232;-80
2022/07/25 04:50:14;;;;;;;0.10;0.10;;;;;;;18.93;100.00;100226.22;4990596;28;20296;-80
2022/07/25 04:52:43;;;;;;;0.10;0.10;;;;;;;18.93;100.00;100213.72;4993823;28;20211;-79
2022/07/25 04:55:11;;;;;;;0.10;0.10;;;;;;;18.82;100.00;100214.03;4987640;28;20216;-78
2022/07/25 04:57:39;;;;;;;0.10;0.10;;;;;;;18.90;100.00;100220.97;4993807;28;20216;-78
2022/07/25 05:00:10;;;;;;;0.10;0.10;;;18.70;99.90;;;18.94;100.00;100220.81;4991273;28;20205;-78
2022/07/25 05:02:38;;;;;;;0.10;0.10;;;;;;;18.96;100.00;100226.16;4994277;28;20208;-78
2022/07/25 05:05:07;;;;;;;0.05;0.05;;;18.60;99.90;;;19.05;100.00;100228.56;4992120;28;20212;-78
2022/07/25 05:07:49;;;;;;;0.00;0.00;;;18.80;99.90;;;19.19;100.00;100235.28;4990761;28;20228;-78
2022/07/25 05:10:18;;;;;;;0.10;0.10;;;;;;;19.34;100.00;100246.47;4988048;28;20201;-78
2022/07/25 05:12:46;;;;;;;0.30;0.30;;;;;;;19.51;100.00;100246.88;4989318;28;20212;-78
2022/07/25 05:15:15;;;;;;;0.10;0.10;;;;;;;19.67;100.00;100260.72;4999839;28;20657;-78
2022/07/25 05:17:43;;;;;;;0.10;0.10;;;;;;;19.77;100.00;100264.88;4990697;28;20200;-77
2022/07/25 05:20:12;;;;;;;0.10;0.10;;;19.50;99.90;;;19.84;100.00;100254.81;4992200;28;20212;-78
2022/07/25 05:22:41;;;;;;;0.10;0.10;;;;;;;19.98;100.00;100274.06;4986355;28;20212;-78
2022/07/25 05:25:11;;;;;;;0.10;0.10;;;19.50;99.90;;;20.06;100.00;100278.25;4990495;28;20208;-78
2022/07/25 05:27:39;;;;;;;0.10;0.10;;;;;;;20.18;100.00;100262.66;4992915;28;20247;-79
2022/07/25 05:30:10;;;;;;;0.10;0.10;;;19.60;99.90;;;20.26;100.00;100255.22;4989712;28;20205;-78
2022/07/25 05:32:38;;;;;;;0.20;0.20;;;19.70;99.90;;;20.41;100.00;100255.63;4992664;28;20208;-78
2022/07/25 05:35:08;;;;;;;0.30;0.30;;;19.80;99.90;;;20.46;100.00;100266.22;4991303;28;20213;-79
2022/07/25 05:37:37;;;;;;;0.10;0.10;;;19.90;99.90;;;20.55;100.00;100275.75;4992459;28;20217;-78
2022/07/25 05:40:06;;;;;;;0.10;0.10;;;19.80;99.90;;;20.70;100.00;100276.09;4992203;28;20204;-79
2022/07/25 05:42:35;;;;;;;0.47;0.47;;;;;;;20.73;100.00;100262.56;4991726;28;20692;-78
2022/07/25 05:45:03;;;;;;;0.10;0.10;;;;;;;20.81;100.00;100267.69;4991689;28;20225;-78
2022/07/25 05:47:32;;;;;;;0.10;0.10;;;;;;;20.86;100.00;100267.53;4978239;28;20229;-78
2022/07/25 05:50:01;;;;;;;0.10;0.10;;;;;;;20.93;100.00;100266.38;4975886;28;20220;-78
2022/07/25 05:52:29;;;;;;;0.10;0.10;;;;;;;21.12;100.00;100283.59;4990910;28;20204;-78
2022/07/25 05:54:57;;;;;;;0.10;0.10;;;;;;;21.33;100.00;100287.34;4981982;28;20228;-79
2022/07/25 05:57:26;;;;;;;0.10;0.10;;;;;;;21.52;100.00;100285.72;4991140;28;20201;-79
2022/07/25 05:59:54;;;;;;;0.10;0.10;;;;;;;21.70;100.00;100284.13;4989822;28;20212;-79
2022/07/25 06:02:22;;;;;;;0.10;0.10;;;;;;;21.77;100.00;100268.59;4991322;28;20580;-78
2022/07/25 06:04:51;;;;;;;0.00;0.00;;;;;;;21.79;100.00;100251.47;4993185;28;20229;-79
2022/07/25 06:07:19;;;;;;;0.28;0.28;;;;;;;22.09;100.00;100253.88;4992873;28;20235;-81
2022/07/25 06:09:47;;;;;;;0.30;0.30;;;;;;;22.24;100.00;100237.09;4995128;28;20200;-81
2022/07/25 06:12:15;;;;;;;0.30;0.30;;;;;;;22.37;100.00;100234.78;4991461;28;20213;-81
2022/07/25 06:14:44;;;;;;;0.10;0.10;;;;;;;22.45;100.00;100211.06;4990988;28;20224;-80
2022/07/25 06:17:12;;;;;;;0.10;0.10;;;;;;;22.65;100.00;100235.34;4989610;28;20220;-81
2022/07/25 06:19:40;;;;;;;0.17;0.17;;;;;;;22.78;100.00;100227.59;4992839;28;20212;-81
2022/07/25 06:22:10;;;;;;;0.00;0.00;;;;;;;22.95;100.00;100208.84;4996692;28;20205;-83
2022/07/25 06:24:38;;;;;;;0.10;0.10;;;;;;;22.94;100.00;100172.91;5010001;28;20232;-82
2022/07/25 06:27:07;;;;;;;0.10;0.10;;;;;;;22.96;100.00;100159.38;4996609;28;20232;-81
2022/07/25 06:29:36;;;;;;;0.10;0.10;;;;;;;23.13;100.00;100151.38;4997109;28;20223;-81
2022/07/25 06:32:04;;;;;;;0.10;0.10;;;21.90;99.90;;;23.33;100.00;100155.81;4989230;28;20575;-81
2022/07/25 06:34:33;;;;;;;0.35;0.35;;;;;;;23.44;100.00;100131.03;4989380;28;20728;-82
2022/07/25 06:37:01;;;;;;;0.10;0.10;;;;;;;23.66;100.00;100120.09;5000737;28;20200;-81
2022/07/25 06:39:29;;;;;;;0.10;0.10;;;;;;;23.73;97.40;100079.22;4995135;28;20215;-83
2022/07/25 06:41:58;;;;;;;0.10;0.10;;;;;;;23.89;96.73;100076.59;4987243;28;20251;-82
2022/07/25 06:44:34;;;;;;;0.63;0.63;;;;;;;24.03;95.91;100067.78;4990303;28;20234;-82
2022/07/25 06:47:02;;;;;;;0.00;0.00;;;;;;;23.98;95.21;100059.91;4992670;28;20208;-83
2022/07/25 06:49:31;;;;;;;0.10;0.10;;;;;;;24.03;95.17;100047.03;4996131;28;20205;-81
2022/07/25 06:51:59;;;;;;;0.32;0.32;;;;;;;24.26;95.39;100070.16;4996925;28;20607;-81
2022/07/25 06:54:29;;;;;;;0.10;0.10;;;;;;;24.34;94.38;100045.44;4992258;28;20225;-81
2022/07/25 06:56:57;;;;;;;0.10;0.10;;;;;;;24.51;93.97;100048.13;4990931;28;20248;-81
2022/07/25 06:59:25;;;;;;;0.10;0.10;;;;;;;24.65;93.35;100042.81;5008011;28;20208;-81
2022/07/25 07:01:54;;;;;;;0.20;0.20;;;;;;;24.69;93.38;100020.06;5008286;28;20208;-81
2022/07/25 07:04:22;;;;;;;0.15;0.15;;;;;;;24.74;92.91;100007.19;4992985;28;20220;-81
2022/07/25 07:06:50;;;;;;;0.00;0.00;;;;;;;24.93;91.53;99996.19;4993536;28;20205;-81
2022/07/25 07:09:18;;;;;;;0.00;0.00;;;;;;;25.25;92.22;100023.28;5008104;28;20227;-81
2022/07/25 07:11:47;;;;;;;0.20;0.20;;;;;;;25.37;90.74;99999.06;4994351;28;20211;-81
2022/07/25 07:14:15;;;;;;;0.00;0.00;;;;;;;25.47;91.18;99996.69;4990654;28;20228;-81
2022/07/25 07:16:43;;;;;;;0.00;0.00;;;;;;;25.47;90.17;99975.91;4992171;28;20212;-81
2022/07/25 07:19:13;;;;;;;0.10;0.10;;;;;;;25.73;89.84;99971.66;4993124;28;20208;-81
2022/07/25 07:21:42;;;;;;;0.00;0.00;;;;;;;25.89;89.81;99968.00;5007892;28;20196;-81
2022/07/25 07:24:10;;;;;;;0.00;0.00;;;;;;;26.17;89.48;99976.19;4990360;28;20224;-82
2022/07/25 07:26:53;;;;;;;0.05;0.05;;;25.70;99.90;;;26.19;87.92;99930.91;4993019;28;20200;-82
2022/07/25 07:29:21;;;;;;;0.10;0.10;;;;;;;26.24;87.48;99917.06;4993773;28;20236;-81
2022/07/25 07:31:50;;;;;;;0.10;0.10;;;;;;;26.50;86.63;99916.28;5008342;28;20214;-82
2022/07/25 07:34:18;;;;;;;0.25;0.20;;;;;;;26.59;87.56;99923.81;4995067;28;20227;-81
2022/07/25 07:36:47;;;;;;;0.00;0.00;;;;;;;26.65;86.67;99912.56;4990956;28;20196;-81
2022/07/25 07:39:15;;;;;;;0.20;0.20;;;;;;;26.75;85.25;99886.56;4988110;28;20217;-81
2022/07/25 07:41:44;;;;;;;0.17;0.17;;;;;;;27.07;84.53;99889.00;4994626;28;20691;-82
2022/07/25 07:44:12;;;;;;;0.00;0.00;;;;;;;27.08;84.21;99869.03;4975865;28;20224;-81
2022/07/25 07:46:40;;;;;;;0.00;0.00;;;;;;;27.37;84.32;99889.66;4993977;28;20215;-81
2022/07/25 07:49:08;;;;;;;0.22;0.22;;;;;;;27.68;83.39;99871.25;4991632;28;20243;-81
2022/07/25 07:51:38;;;;;;;0.15;0.15;;;;;;;27.95;84.51;99887.44;4984273;28;20676;-81
2022/07/25 07:56:53;;;;;;;0.10;0.10;;;;;;;28.27;82.56;99852.50;4993164;28;20206;-81
2022/07/25 07:59:21;;;;;;;0.10;0.10;;;27.50;99.90;;;28.24;82.07;99834.56;4988796;28;20216;-81
2022/07/25 08:01:49;;;;;;;0.00;0.00;;;27.60;99.90;;;28.55;81.70;99845.91;4991856;28;20203;-81
2022/07/25 08:04:19;;;;;;;0.20;0.20;;;;;;;28.49;81.65;99808.28;4988308;28;20231;-81
2022/07/25 08:06:47;;;;;;;0.30;0.15;;;;;;;28.39;80.61;99775.47;4990698;28;20220;-81
2022/07/25 08:09:15;;;;;;;0.38;0.38;;;;;;;28.70;80.47;99793.09;4991021;28;20235;-81
2022/07/25 08:11:43;;;;;;;0.10;0.10;;;28.60;99.90;;;28.94;80.48;99793.94;4993533;28;20219;-81
2022/07/25 08:14:12;;;;;;;0.20;0.20;;;;;;;29.09;78.72;99764.66;4983242;28;20223;-81
2022/07/25 08:16:40;;;;;;;0.10;0.10;;;29.00;99.90;;;29.40;78.84;99767.69;4991821;28;20218;-82
2022/07/25 08:19:08;;;;;;;0.00;0.00;;;29.30;99.90;;;29.30;77.71;99715.81;4992666;28;20204;-81
2022/07/25 08:21:37;;;;;;;0.20;0.17;;;;;;;29.56;76.49;99709.16;4990104;28;20216;-81
2022/07/25 08:24:06;;;;;;;0.15;0.15;;;;;;;30.08;77.23;99734.06;4988824;28;20246;-82
2022/07/25 08:26:35;;;;;;;0.10;0.10;;;29.50;99.90;;;30.21;76.58;99704.78;4987992;28;20216;-81
2022/07/25 08:29:04;;;;;;;0.20;0.20;;;;;;;30.55;75.55;99694.59;4984735;28;20241;-82
2022/07/25 08:31:46;;;;;;;0.10;0.10;;;;;;;30.60;75.10;99683.31;4981655;28;20208;-81
2022/07/25 08:34:14;;;;;;;0.20;0.20;;;;;;;30.55;75.00;99637.31;4989531;28;20242;-81
2022/07/25 08:36:43;;;;;;;0.15;0.15;;;;;;;31.13;74.17;99667.72;4992107;28;20207;-82
2022/07/25 08:39:12;;;;;;;0.10;0.10;;;;;;;31.13;75.19;99654.94;4991640;28;20206;-81
2022/07/25 08:41:41;;;;;;;0.40;0.40;;;30.90;99.90;;;31.46;74.87;99655.72;4989800;28;20203;-82
2022/07/25 08:44:09;;;;;;;0.10;0.03;;;;;;;31.45;74.36;99630.25;4988535;28;20228;-82
2022/07/25 08:46:40;;;;;;;0.10;0.10;;;31.60;99.90;;;31.73;73.16;99614.09;5002216;28;20212;-81
2022/07/25 08:49:09;;;;;;;0.00;0.00;;;;;;;31.89;73.56;99606.22;4987758;28;20626;-82
2022/07/25 08:51:39;;;;;;;0.00;0.00;;;31.90;99.90;;;32.27;72.53;99613.59;5006627;28;20289;-82
2022/07/25 08:54:09;;;;;;;0.00;0.00;;;31.20;99.90;;;32.10;72.00;99535.84;4983755;28;20603;-81
2022/07/25 08:56:38;;;;;;;0.03;0.03;;;;;;;32.33;71.48;99541.88;4988564;28;20212;-83
2022/07/25 08:59:06;;;;;;;0.10;0.10;;;;;;;32.27;70.05;99485.03;4988707;28;20204;-82
2022/07/25 09:01:34;;;;;;;0.00;0.00;;;33.00;99.90;;;32.46;69.72;99493.19;4985515;28;20206;-82
2022/07/25 09:04:02;;;;;;;1.25;1.25;;;32.60;99.90;;;32.83;71.74;99529.84;4990416;28;20220;-82
2022/07/25 09:06:32;;;;;;;0.00;0.00;;;;;;;32.67;68.66;99448.34;4972803;28;20208;-82
2022/07/25 09:09:04;;;;;;;0.00;0.00;;;32.60;99.90;;;32.95;69.23;99465.66;4984147;28;20234;-81
2022/07/25 09:11:35;;;;;;;0.00;0.00;;;33.10;99.90;;;33.20;68.77;99456.72;4989951;28;20200;-82
2022/07/25 09:14:07;;;;;;;0.30;0.30;;;33.00;99.90;;;33.25;67.80;99420.63;4987529;28;20591;-82
2022/07/25 09:16:41;;;;;;;0.10;0.10;;;33.30;99.90;;;33.40;67.12;99413.63;4979898;28;20208;-81
2022/07/25 09:19:18;;;;;;;0.17;0.17;;;33.50;99.90;;;33.34;67.81;99384.97;4979718;28;20207;-82
2022/07/25 09:22:00;;;;;;;0.00;0.00;;;34.00;99.90;;;33.34;66.97;99348.47;4980358;28;20215;-82
2022/07/25 09:24:29;;;;;;;0.45;0.45;;;33.60;99.90;;;33.64;67.04;99353.53;4986738;28;20231;-83
2022/07/25 09:27:07;;;;;;;0.20;0.20;;;33.50;99.90;;;33.35;67.03;99296.25;4990598;28;20211;-82
2022/07/25 09:29:38;;;;;;;0.03;0.03;;;33.60;99.90;;;33.47;67.79;99302.34;4979755;28;20227;-82
2022/07/25 09:32:21;;;;;;;0.32;0.30;;;33.50;99.90;;;33.51;67.21;99275.47;4987039;28;20200;-82
2022/07/25 09:34:50;;;;;;;0.20;0.20;;;34.10;99.90;;;33.99;66.00;99303.25;4992490;28;20232;-82
2022/07/25 09:37:26;;;;;;;0.20;0.20;;;34.30;99.90;;;34.00;65.86;99261.09;4986547;28;20215;-82
2022/07/25 09:39:54;;;;;;;0.00;0.00;;;;;;;34.45;65.35;99295.59;4987226;28;20219;-82
2022/07/25 09:42:31;;;;;;;0.10;0.10;;;34.70;99.90;;;34.68;66.17;99298.59;4989692;28;20199;-82
2022/07/25 09:45:12;;;;;;;0.20;0.20;;;35.90;99.90;;;34.82;65.41;99269.63;4990778;28;20231;-82
2022/07/25 09:47:56;;;;;;;0.10;0.10;;;34.80;99.90;;;33.82;63.87;99127.81;4987395;28;20207;-82
2022/07/25 09:50:27;;;;;;;0.20;0.20;;;35.10;99.90;;;34.81;63.67;99229.44;4990769;28;20224;-82
2022/07/25 09:52:58;;;;;;;0.30;0.05;;;35.30;99.90;;;35.27;61.71;99217.81;4980597;28;20626;-82
2022/07/25 09:55:27;;;;;;;0.00;0.00;;;;;;;35.42;62.67;99209.75;4991787;28;20208;-83
2022/07/25 09:57:55;;;;;;;0.15;0.15;;;;;;;35.52;62.27;99179.31;4992245;28;20208;-83
2022/07/25 10:00:26;;;;;;;0.20;0.20;;;35.80;99.90;;;35.36;61.85;99138.13;4998009;28;20204;-83
2022/07/25 10:03:24;;;;;;;0.20;0.20;;;;;;;34.43;61.44;99012.19;4993976;28;20220;-82
2022/07/25 10:06:14;;;;;;;0.28;0.28;;;;;;;34.26;63.78;99040.63;4977718;28;20211;-82
2022/07/25 10:08:42;;;;;;;0.10;0.10;;;;;;;34.17;64.11;99037.03;5003413;28;20215;-83
2022/07/25 10:11:25;;;;;;;0.00;0.00;;;34.50;99.90;;;34.47;64.88;99084.91;5002735;28;20192;-82
2022/07/25 10:13:54;;;;;;;0.05;0.05;;;34.30;99.90;;;34.97;63.88;99123.19;4988434;28;20238;-82
2022/07/25 10:16:26;;;;;;;0.10;0.10;;;34.80;99.90;;;33.93;63.95;98974.78;4987825;28;20217;-82
2022/07/25 10:18:57;;;;;;;0.10;0.10;;;34.60;99.90;;;34.10;65.35;99029.66;4988946;28;20204;-82
2022/07/25 10:21:27;;;;;;;0.10;0.10;;;34.70;99.90;;;34.47;67.91;99108.78;4992995;28;20208;-83
2022/07/25 10:24:08;;;;;;;0.10;0.10;;;34.90;99.90;;;34.78;65.68;99101.56;4993457;28;20588;-81
2022/07/25 10:26:51;;;;;;;0.45;0.45;;;34.90;99.90;;;34.52;66.22;99077.03;4993509;28;20208;-82
2022/07/25 10:29:19;;;;;;;0.25;0.25;;;;;;;33.98;66.47;99009.94;4990706;28;20228;-81
2022/07/25 10:31:47;;;;;;;0.20;0.20;;;;;;;34.01;67.62;99050.72;4990109;28;20212;-83
2022/07/25 10:34:32;;;;;;;0.00;0.00;;;34.50;99.90;;;34.59;66.27;99090.94;4984462;28;20229;-81
2022/07/25 10:37:27;;;;;;;0.10;0.10;;;34.20;99.90;;;35.47;64.22;99124.00;4992860;28;20219;-82
2022/07/25 10:39:56;;;;;;;0.10;0.08;;;;;;;34.88;65.04;99051.97;4993725;28;20208;-82
2022/07/25 10:42:25;;;;;;;0.30;0.30;;;;;;;35.09;64.40;99054.13;4993541;28;20212;-83
2022/07/25 10:44:58;;;;;;;0.20;0.20;;;35.30;99.90;;;35.27;64.96;99065.78;5008632;28;20224;-83
2022/07/25 10:47:27;;;;;;;0.10;0.10;;;35.40;99.90;;;35.27;66.13;99058.41;4990963;28;20212;-82
2022/07/25 10:50:02;;;;;;;1.40;1.02;;;35.40;99.90;;;35.67;64.01;99061.19;4987736;28;20244;-82
2022/07/25 10:52:59;;;;;;;0.20;0.20;;;36.20;99.90;;;35.94;62.68;99043.34;4987925;28;20212;-83
2022/07/25 10:55:28;;;;;;;0.00;0.00;;;36.00;99.80;;;35.88;63.09;99011.91;4991484;28;20196;-83
2022/07/25 10:58:05;;;;;;;0.57;0.40;;;36.00;98.50;;;35.54;62.46;98960.88;4989514;28;20207;-83
2022/07/25 11:00:49;;;;;;;0.65;0.63;;;;;;;35.50;63.80;98975.19;4987615;28;20203;-83
2022/07/25 11:03:20;;;;;;;0.08;0.08;;;36.10;99.90;;;35.93;65.09;99036.97;4994518;28;20239;-80
2022/07/25 11:05:50;;;;;;;0.10;0.10;;;;;;;35.27;63.94;98953.97;5007610;28;20207;-82
2022/07/25 11:08:28;;;;;;;0.10;0.10;;;;;;;35.05;64.78;98951.13;4994867;28;20212;-83
2022/07/25 11:10:57;;;;;;;0.10;0.10;;;;;;;35.07;65.70;98979.28;4994072;28;20242;-82
2022/07/25 11:13:25;;;;;;;0.05;0.05;;;;;;;35.08;64.51;98970.00;5002399;28;20220;-83
2022/07/25 11:15:57;;;;;;;0.13;0.13;;;35.60;99.00;;;35.26;63.99;98973.38;5001571;28;20783;-83
2022/07/25 11:18:39;;;;;;;0.15;0.15;;;35.80;98.90;;;35.86;63.25;99020.34;4992405;28;20220;-84